Time;durP1;ratioP1;P1;durP2;ratioP2;P2;SDS_P1;SDS_P2;PMS_P1;PMS_P2;Temp;Humidity;BMP_temperature;BMP_pressure;BME280_temperature;BME280_humidity;BME280_pressure;Samples;Min_cycle;Max_cycle;Signal;HPM_P1;HPM_P2
2020/12/04 00:02:04;;;;;;;183.37;110.90;;;;;;;;;;4432008;32;20241;-60
2020/12/04 00:04:29;;;;;;;184.23;108.77;;;;;;;;;;4431294;32;20618;-60
2020/12/04 00:06:55;;;;;;;176.37;104.83;;;;;;;;;;4430827;32;20606;-60
2020/12/04 00:09:20;;;;;;;180.17;106.37;;;;;;;;;;4434305;32;20333;-60
2020/12/04 00:11:46;;;;;;;164.93;103.07;;;;;;;;;;4431799;32;20393;-60
2020/12/04 00:14:11;;;;;;;161.67;99.03;;;;;;;;;;4431348;32;20228;-60
2020/12/04 00:16:36;;;;;;;166.27;103.73;;;;;;;;;;4431760;32;20314;-60
2020/12/04 00:19:02;;;;;;;168.70;105.67;;;;;;;;;;4433660;32;20658;-60
2020/12/04 00:21:28;;;;;;;169.17;107.07;;;;;;;;;;4431932;32;20346;-60
2020/12/04 00:23:53;;;;;;;181.67;108.90;;;;;;;;;;4431206;32;20208;-60
2020/12/04 00:26:18;;;;;;;187.73;109.70;;;;;;;;;;4430888;32;20248;-60
2020/12/04 00:28:44;;;;;;;171.27;103.60;;;;;;;;;;4431768;32;20354;-59
2020/12/04 00:31:09;;;;;;;181.57;110.67;;;;;;;;;;4433649;32;20331;-59
2020/12/04 00:33:34;;;;;;;189.70;109.83;;;;;;;;;;4431006;32;20285;-64
2020/12/04 00:36:00;;;;;;;183.70;109.63;;;;;;;;;;4441059;32;20736;-63
2020/12/04 00:38:25;;;;;;;170.43;102.83;;;;;;;;;;4431410;32;20238;-63
2020/12/04 00:40:51;;;;;;;177.07;103.47;;;;;;;;;;4434565;32;20256;-64
2020/12/04 00:43:16;;;;;;;175.80;103.87;;;;;;;;;;4416923;32;20291;-64
2020/12/04 00:45:42;;;;;;;173.00;102.83;;;;;;;;;;4440673;32;20566;-63
2020/12/04 00:48:07;;;;;;;163.37;97.47;;;;;;;;;;4433674;32;20272;-63
2020/12/04 00:50:32;;;;;;;177.67;105.40;;;;;;;;;;4437440;32;20703;-64
2020/12/04 00:52:58;;;;;;;201.30;116.37;;;;;;;;;;4430079;32;20346;-53
2020/12/04 00:55:23;;;;;;;184.67;105.00;;;;;;;;;;4433299;32;20285;-53
2020/12/04 00:57:49;;;;;;;191.07;108.10;;;;;;;;;;4433512;32;20615;-54
2020/12/04 01:00:14;;;;;;;183.40;104.63;;;;;;;;;;4437016;32;20276;-55
2020/12/04 01:02:40;;;;;;;187.93;105.87;;;;;;;;;;4433305;32;20390;-54
2020/12/04 01:05:05;;;;;;;201.03;110.87;;;;;;;;;;4442848;32;20291;-54
2020/12/04 01:07:31;;;;;;;189.73;106.37;;;;;;;;;;4434046;32;20277;-54
2020/12/04 01:09:56;;;;;;;182.83;103.47;;;;;;;;;;4434114;32;20267;-54
2020/12/04 01:12:22;;;;;;;175.17;99.40;;;;;;;;;;4432799;32;20217;-55
2020/12/04 01:14:47;;;;;;;164.63;96.23;;;;;;;;;;4434186;32;20298;-55
2020/12/04 01:17:13;;;;;;;164.37;95.80;;;;;;;;;;4433660;32;20246;-55
2020/12/04 01:19:38;;;;;;;155.73;95.20;;;;;;;;;;4434965;32;20276;-56
2020/12/04 01:22:04;;;;;;;161.33;94.07;;;;;;;;;;4433834;32;20220;-55
2020/12/04 01:24:30;;;;;;;149.80;91.40;;;;;;;;;;4438784;32;20310;-56
2020/12/04 01:26:55;;;;;;;144.37;86.87;;;;;;;;;;4438026;32;20248;-55
2020/12/04 01:29:20;;;;;;;144.97;85.77;;;;;;;;;;4433014;32;20355;-53
2020/12/04 01:31:47;;;;;;;132.90;86.70;;;;;;;;;;4432894;32;20603;-54
2020/12/04 01:34:13;;;;;;;142.60;84.67;;;;;;;;;;4432756;32;20235;-53
2020/12/04 01:36:38;;;;;;;154.00;89.17;;;;;;;;;;4433690;32;20221;-53
2020/12/04 01:39:04;;;;;;;171.93;93.77;;;;;;;;;;4436133;32;20327;-53
2020/12/04 01:41:33;;;;;;;173.10;95.00;;;;;;;;;;4433859;32;20244;-53
2020/12/04 01:43:58;;;;;;;191.30;104.00;;;;;;;;;;4435065;32;20315;-53
2020/12/04 01:46:24;;;;;;;184.50;103.30;;;;;;;;;;4440936;32;20287;-53
2020/12/04 01:48:49;;;;;;;164.43;91.37;;;;;;;;;;4420321;32;20284;-55
2020/12/04 01:51:16;;;;;;;294.80;139.60;;;;;;;;;;4434706;32;20220;-53
2020/12/04 01:53:44;;;;;;;182.97;101.30;;;;;;;;;;4433240;32;20213;-53
2020/12/04 01:56:10;;;;;;;197.33;105.03;;;;;;;;;;4442472;32;20228;-53
2020/12/04 01:58:36;;;;;;;182.20;97.77;;;;;;;;;;4432362;32;20689;-53
2020/12/04 02:01:02;;;;;;;162.37;95.70;;;;;;;;;;4433031;32;20216;-53
2020/12/04 02:03:28;;;;;;;163.47;91.00;;;;;;;;;;4432493;32;20279;-54
2020/12/04 02:06:01;;;;;;;166.67;93.73;;;;;;;;;;4436196;32;20774;-53
2020/12/04 02:08:33;;;;;;;154.87;92.03;;;;;;;;;;4412522;32;20794;-54
2020/12/04 02:11:20;;;;;;;144.70;83.23;;;;;;;;;;4432799;32;20348;-55
2020/12/04 02:13:48;;;;;;;122.03;75.67;;;;;;;;;;4428157;32;20208;-55
2020/12/04 02:16:18;;;;;;;108.53;63.47;;;;;;;;;;4429190;32;20251;-56
2020/12/04 02:18:44;;;;;;;111.90;68.63;;;;;;;;;;4430737;32;20301;-56
2020/12/04 02:21:11;;;;;;;112.10;66.07;;;;;;;;;;4433356;32;20262;-58
2020/12/04 02:23:37;;;;;;;110.60;67.77;;;;;;;;;;4433040;32;20275;-57
2020/12/04 02:26:03;;;;;;;98.10;60.33;;;;;;;;;;4433007;32;20393;-57
2020/12/04 02:28:35;;;;;;;105.87;62.47;;;;;;;;;;4432838;32;20287;-57
2020/12/04 02:31:02;;;;;;;103.97;62.43;;;;;;;;;;4432596;32;20351;-57
2020/12/04 02:33:28;;;;;;;94.23;60.37;;;;;;;;;;4425697;32;20201;-58
2020/12/04 02:35:54;;;;;;;94.73;59.73;;;;;;;;;;4427811;32;20697;-57
2020/12/04 02:38:21;;;;;;;93.93;58.90;;;;;;;;;;4425023;32;20251;-57
2020/12/04 02:40:46;;;;;;;91.37;58.27;;;;;;;;;;4433332;32;20277;-57
2020/12/04 02:43:12;;;;;;;92.07;57.77;;;;;;;;;;4426472;32;20201;-57
2020/12/04 02:45:37;;;;;;;84.00;54.40;;;;;;;;;;4429518;32;20390;-58
2020/12/04 02:48:03;;;;;;;83.73;51.40;;;;;;;;;;4422128;32;20692;-58
2020/12/04 02:50:28;;;;;;;82.37;52.37;;;;;;;;;;4432765;32;20752;-57
2020/12/04 02:52:54;;;;;;;86.80;56.37;;;;;;;;;;4421348;32;20320;-57
2020/12/04 02:55:19;;;;;;;72.37;46.67;;;;;;;;;;4431050;32;20295;-57
2020/12/04 02:57:45;;;;;;;72.10;45.80;;;;;;;;;;4432136;32;20201;-57
2020/12/04 03:00:10;;;;;;;75.13;49.07;;;;;;;;;;4426500;32;20291;-57
2020/12/04 03:02:35;;;;;;;81.40;49.77;;;;;;;;;;4426270;32;20233;-58
2020/12/04 03:05:01;;;;;;;79.90;46.63;;;;;;;;;;4432693;32;20258;-58
2020/12/04 03:07:26;;;;;;;74.93;45.57;;;;;;;;;;4431331;32;20363;-59
2020/12/04 03:09:52;;;;;;;73.80;48.33;;;;;;;;;;4432343;32;20610;-59
2020/12/04 03:12:17;;;;;;;78.70;51.73;;;;;;;;;;4426121;32;20288;-57
2020/12/04 03:14:43;;;;;;;95.20;59.00;;;;;;;;;;4432720;32;20328;-54
2020/12/04 03:17:08;;;;;;;139.10;79.97;;;;;;;;;;4427461;32;20250;-54
2020/12/04 03:19:33;;;;;;;152.73;88.23;;;;;;;;;;4431257;32;20363;-54
2020/12/04 03:21:59;;;;;;;149.07;89.43;;;;;;;;;;4427175;32;20884;-54
2020/12/04 03:24:24;;;;;;;127.27;82.10;;;;;;;;;;4431175;32;20285;-53
2020/12/04 03:26:50;;;;;;;125.90;77.00;;;;;;;;;;4425072;32;20357;-53
2020/12/04 03:29:15;;;;;;;114.17;71.73;;;;;;;;;;4431328;32;20220;-53
2020/12/04 03:31:40;;;;;;;117.37;72.07;;;;;;;;;;4411557;32;20504;-60
2020/12/04 03:34:06;;;;;;;124.13;71.03;;;;;;;;;;4416166;32;20360;-61
2020/12/04 03:36:31;;;;;;;142.47;82.20;;;;;;;;;;4430479;32;20666;-59
2020/12/04 03:38:57;;;;;;;169.20;88.23;;;;;;;;;;4431955;32;20724;-64
2020/12/04 03:41:22;;;;;;;160.47;84.07;;;;;;;;;;4431957;32;20248;-64
2020/12/04 03:43:48;;;;;;;145.83;80.53;;;;;;;;;;4432306;32;20729;-63
2020/12/04 03:46:13;;;;;;;146.77;80.03;;;;;;;;;;4423958;32;20435;-63
2020/12/04 03:48:39;;;;;;;150.07;82.67;;;;;;;;;;4431090;32;20311;-59
2020/12/04 03:51:05;;;;;;;137.27;78.80;;;;;;;;;;4426475;32;20350;-59
2020/12/04 03:53:31;;;;;;;145.53;84.63;;;;;;;;;;4430846;32;20296;-58
2020/12/04 03:55:57;;;;;;;125.13;73.90;;;;;;;;;;4432001;32;20224;-59
2020/12/04 03:58:22;;;;;;;135.33;75.90;;;;;;;;;;4430851;32;20249;-62
2020/12/04 04:00:47;;;;;;;132.27;76.63;;;;;;;;;;4428464;32;20344;-62
2020/12/04 04:03:13;;;;;;;129.97;77.47;;;;;;;;;;4428646;32;20240;-62
2020/12/04 04:05:38;;;;;;;191.80;99.10;;;;;;;;;;4429761;32;20250;-63
2020/12/04 04:08:04;;;;;;;272.80;126.33;;;;;;;;;;4431162;32;20230;-61
2020/12/04 04:10:30;;;;;;;285.90;131.60;;;;;;;;;;4431796;32;20269;-59
2020/12/04 04:12:55;;;;;;;241.97;113.53;;;;;;;;;;4431627;32;20297;-59
2020/12/04 04:15:21;;;;;;;195.93;99.47;;;;;;;;;;4431337;32;20332;-58
2020/12/04 04:17:47;;;;;;;197.07;99.17;;;;;;;;;;4431141;32;20208;-59
2020/12/04 04:20:12;;;;;;;186.70;98.47;;;;;;;;;;4431298;32;20224;-59
2020/12/04 04:22:38;;;;;;;202.53;100.57;;;;;;;;;;4426620;32;20265;-59
2020/12/04 04:25:03;;;;;;;189.50;101.10;;;;;;;;;;4429709;32;20654;-59
2020/12/04 04:27:29;;;;;;;174.87;97.60;;;;;;;;;;4427469;32;20678;-61
2020/12/04 04:29:54;;;;;;;192.30;100.13;;;;;;;;;;4434056;32;20228;-60
2020/12/04 04:32:20;;;;;;;188.63;96.60;;;;;;;;;;4423539;32;20722;-60
2020/12/04 04:34:45;;;;;;;216.37;107.20;;;;;;;;;;4431837;32;20300;-60
2020/12/04 04:37:11;;;;;;;220.57;110.87;;;;;;;;;;4434367;32;20560;-60
2020/12/04 04:39:36;;;;;;;222.73;114.93;;;;;;;;;;4434252;32;20363;-60
2020/12/04 04:42:01;;;;;;;234.17;119.77;;;;;;;;;;4434634;32;20197;-60
2020/12/04 04:44:28;;;;;;;257.60;141.10;;;;;;;;;;4434279;32;20224;-61
2020/12/04 04:47:10;;;;;;;214.30;116.87;;;;;;;;;;4433759;32;20691;-60
2020/12/04 04:49:54;;;;;;;203.90;108.73;;;;;;;;;;4433977;32;20300;-60
2020/12/04 04:52:20;;;;;;;191.87;103.63;;;;;;;;;;4432441;32;20349;-60
2020/12/04 04:54:48;;;;;;;189.93;103.77;;;;;;;;;;4431213;32;20287;-60
2020/12/04 04:57:18;;;;;;;174.63;95.60;;;;;;;;;;4425248;32;20204;-60
2020/12/04 04:59:43;;;;;;;180.43;95.70;;;;;;;;;;4434187;32;20237;-59
2020/12/04 05:02:13;;;;;;;170.27;92.63;;;;;;;;;;4433613;32;20333;-60
2020/12/04 05:04:49;;;;;;;157.83;89.57;;;;;;;;;;4421994;32;20562;-59
2020/12/04 05:07:17;;;;;;;175.87;97.23;;;;;;;;;;4434146;32;20253;-59
2020/12/04 05:09:43;;;;;;;174.87;98.50;;;;;;;;;;4433661;32;20309;-58
2020/12/04 05:12:08;;;;;;;201.60;102.10;;;;;;;;;;4434071;32;20642;-59
2020/12/04 05:14:33;;;;;;;202.97;110.67;;;;;;;;;;4434259;32;20310;-59
2020/12/04 05:16:59;;;;;;;189.47;108.10;;;;;;;;;;4433792;32;20349;-59
2020/12/04 05:19:32;;;;;;;170.17;101.03;;;;;;;;;;4433123;32;20326;-59
2020/12/04 05:22:15;;;;;;;169.40;102.13;;;;;;;;;;4433430;32;21091;-59
2020/12/04 05:24:42;;;;;;;152.43;89.53;;;;;;;;;;4421773;32;20296;-59
2020/12/04 05:27:27;;;;;;;170.13;101.90;;;;;;;;;;4433840;32;20243;-59
2020/12/04 05:29:59;;;;;;;175.27;97.90;;;;;;;;;;4434097;32;20204;-64
2020/12/04 05:32:26;;;;;;;142.00;83.33;;;;;;;;;;4433289;32;20267;-63
2020/12/04 05:35:05;;;;;;;108.93;69.43;;;;;;;;;;4433928;32;20538;-59
2020/12/04 05:37:31;;;;;;;107.87;64.53;;;;;;;;;;4432269;32;20596;-59
2020/12/04 05:39:56;;;;;;;101.70;61.60;;;;;;;;;;4433536;32;20220;-60
2020/12/04 05:42:36;;;;;;;85.73;46.27;;;;;;;;;;4433207;32;20224;-59
2020/12/04 05:45:04;;;;;;;78.50;47.17;;;;;;;;;;4433941;32;20281;-60
2020/12/04 05:47:41;;;;;;;75.60;49.10;;;;;;;;;;4432726;32;20276;-60
2020/12/04 05:50:09;;;;;;;96.30;54.43;;;;;;;;;;4433903;32;20287;-60
2020/12/04 05:52:35;;;;;;;91.07;46.83;;;;;;;;;;4425504;32;20248;-59
2020/12/04 05:55:03;;;;;;;58.37;38.07;;;;;;;;;;4428581;32;20225;-59
2020/12/04 05:57:28;;;;;;;74.70;41.30;;;;;;;;;;4426072;32;20216;-59
2020/12/04 05:59:54;;;;;;;86.60;49.17;;;;;;;;;;4433219;32;20433;-60
2020/12/04 06:02:19;;;;;;;90.90;50.90;;;;;;;;;;4433023;32;20235;-60
2020/12/04 06:04:45;;;;;;;90.20;47.47;;;;;;;;;;4433512;32;20295;-61
2020/12/04 06:07:24;;;;;;;83.00;48.60;;;;;;;;;;4432958;32;20483;-61
2020/12/04 06:09:53;;;;;;;86.83;48.80;;;;;;;;;;4433701;32;20212;-58
2020/12/04 06:12:19;;;;;;;81.57;51.00;;;;;;;;;;4432748;32;20243;-59
2020/12/04 06:14:44;;;;;;;102.70;61.73;;;;;;;;;;4433297;32;20314;-61
2020/12/04 06:17:12;;;;;;;94.60;54.87;;;;;;;;;;4432063;32;20196;-61
2020/12/04 06:19:39;;;;;;;254.40;91.37;;;;;;;;;;4432988;32;20649;-61
2020/12/04 06:22:15;;;;;;;193.17;82.50;;;;;;;;;;4425141;32;20415;-60
2020/12/04 06:24:52;;;;;;;114.80;60.33;;;;;;;;;;4421017;32;20261;-60
2020/12/04 06:27:38;;;;;;;96.43;54.63;;;;;;;;;;4432553;32;20545;-61
2020/12/04 06:30:05;;;;;;;107.13;59.17;;;;;;;;;;4432808;32;20240;-61
2020/12/04 06:32:50;;;;;;;106.37;61.53;;;;;;;;;;4432250;32;20276;-61
2020/12/04 06:35:43;;;;;;;117.10;68.83;;;;;;;;;;4426431;32;20225;-60
2020/12/04 06:38:37;;;;;;;98.17;58.63;;;;;;;;;;4429887;32;20291;-60
2020/12/04 06:41:23;;;;;;;91.20;52.27;;;;;;;;;;4423051;32;20291;-60
2020/12/04 06:43:51;;;;;;;71.23;43.97;;;;;;;;;;4431750;32;20691;-60
2020/12/04 06:46:27;;;;;;;71.87;42.10;;;;;;;;;;4432178;32;20577;-60
2020/12/04 06:52:16;;;;;;;73.40;45.87;;;;;;;;;;4432495;32;20242;-60
2020/12/04 06:54:49;;;;;;;110.67;52.87;;;;;;;;;;4429568;32;20330;-59
2020/12/04 06:57:20;;;;;;;81.17;49.93;;;;;;;;;;4430889;32;20213;-60
2020/12/04 06:59:45;;;;;;;66.43;42.30;;;;;;;;;;4431107;32;20637;-57
2020/12/04 07:02:13;;;;;;;67.30;39.67;;;;;;;;;;4436368;32;20421;-58
2020/12/04 07:04:46;;;;;;;67.70;41.47;;;;;;;;;;4437410;32;20339;-59
2020/12/04 07:07:19;;;;;;;72.53;39.73;;;;;;;;;;4436789;32;20216;-58
2020/12/04 07:10:00;;;;;;;65.97;42.73;;;;;;;;;;4438233;32;20212;-58
2020/12/04 07:12:27;;;;;;;70.30;42.00;;;;;;;;;;4435759;32;20400;-59
2020/12/04 07:14:55;;;;;;;65.67;38.60;;;;;;;;;;4434824;32;20220;-61
2020/12/04 07:17:23;;;;;;;75.63;46.63;;;;;;;;;;4417861;32;20221;-60
2020/12/04 07:19:50;;;;;;;71.27;45.77;;;;;;;;;;4432591;32;20255;-60
2020/12/04 07:22:17;;;;;;;77.60;45.23;;;;;;;;;;4425018;32;20217;-61
2020/12/04 07:24:43;;;;;;;76.80;45.53;;;;;;;;;;4430869;32;20235;-61
2020/12/04 07:27:12;;;;;;;86.53;49.33;;;;;;;;;;4432234;32;20284;-60
2020/12/04 07:29:39;;;;;;;84.93;44.83;;;;;;;;;;4430868;32;20262;-62
2020/12/04 07:32:05;;;;;;;58.17;38.97;;;;;;;;;;4432180;32;20209;-61
2020/12/04 07:34:35;;;;;;;53.30;35.70;;;;;;;;;;4431025;32;20634;-60
2020/12/04 07:37:02;;;;;;;66.67;42.43;;;;;;;;;;4429258;32;20296;-61
2020/12/04 07:39:29;;;;;;;110.17;64.47;;;;;;;;;;4432368;32;20279;-61
2020/12/04 07:41:58;;;;;;;158.23;84.47;;;;;;;;;;4432468;32;20292;-61
2020/12/04 07:44:41;;;;;;;153.47;92.27;;;;;;;;;;4428624;32;20252;-60
2020/12/04 07:47:16;;;;;;;154.70;95.33;;;;;;;;;;4429851;32;20746;-61
2020/12/04 07:49:46;;;;;;;163.70;100.27;;;;;;;;;;4431891;32;20220;-61
2020/12/04 07:52:17;;;;;;;135.37;89.33;;;;;;;;;;4431804;32;20236;-60
2020/12/04 07:54:43;;;;;;;105.47;69.73;;;;;;;;;;4423904;32;20542;-60
2020/12/04 07:57:10;;;;;;;98.10;60.53;;;;;;;;;;4431503;32;20272;-59
2020/12/04 07:59:38;;;;;;;75.60;48.57;;;;;;;;;;4431720;32;20312;-61
2020/12/04 08:02:05;;;;;;;69.23;46.50;;;;;;;;;;4432076;32;20604;-62
2020/12/04 08:04:32;;;;;;;78.30;52.50;;;;;;;;;;4432508;32;20231;-61
2020/12/04 08:07:12;;;;;;;76.63;52.00;;;;;;;;;;4431679;32;20213;-61
2020/12/04 08:09:46;;;;;;;81.37;55.67;;;;;;;;;;4432450;32;20278;-60
2020/12/04 08:12:15;;;;;;;76.03;51.93;;;;;;;;;;4430781;32;20314;-60
2020/12/04 08:14:48;;;;;;;68.53;47.97;;;;;;;;;;4432143;32;20359;-60
2020/12/04 08:17:17;;;;;;;78.43;55.20;;;;;;;;;;4430546;32;20627;-60
2020/12/04 08:19:43;;;;;;;79.30;54.90;;;;;;;;;;4417298;32;20246;-60
2020/12/04 08:22:08;;;;;;;88.07;58.33;;;;;;;;;;4418208;32;20278;-61
2020/12/04 08:24:39;;;;;;;73.63;55.37;;;;;;;;;;4432548;32;20268;-61
2020/12/04 08:27:10;;;;;;;79.07;55.53;;;;;;;;;;4431179;32;20276;-62
2020/12/04 08:29:39;;;;;;;102.80;67.20;;;;;;;;;;4431557;32;20291;-61
2020/12/04 08:32:18;;;;;;;104.33;63.03;;;;;;;;;;4431924;32;20248;-61
2020/12/04 08:34:44;;;;;;;94.70;60.07;;;;;;;;;;4432153;32;20234;-61
2020/12/04 08:37:11;;;;;;;95.97;60.97;;;;;;;;;;4431602;32;20527;-61
2020/12/04 08:39:49;;;;;;;97.07;63.10;;;;;;;;;;4426080;32;21168;-65
2020/12/04 08:42:17;;;;;;;98.87;62.63;;;;;;;;;;4431230;32;20271;-61
2020/12/04 08:44:54;;;;;;;135.53;88.40;;;;;;;;;;4431601;32;20271;-62
2020/12/04 08:47:29;;;;;;;105.97;65.87;;;;;;;;;;4430932;32;20193;-61
2020/12/04 08:49:56;;;;;;;90.57;60.43;;;;;;;;;;4418719;32;20326;-61
2020/12/04 08:52:37;;;;;;;120.73;74.60;;;;;;;;;;4429876;32;20769;-61
2020/12/04 08:55:11;;;;;;;87.70;57.37;;;;;;;;;;4427293;32;20233;-61
2020/12/04 08:57:37;;;;;;;89.40;51.87;;;;;;;;;;4428494;32;20296;-62
2020/12/04 09:00:05;;;;;;;70.07;40.57;;;;;;;;;;4427797;32;20208;-62
2020/12/04 09:02:31;;;;;;;75.13;41.93;;;;;;;;;;4427504;32;20292;-62
2020/12/04 09:04:56;;;;;;;158.73;93.73;;;;;;;;;;4429497;32;20376;-62
2020/12/04 09:07:22;;;;;;;69.93;43.67;;;;;;;;;;4428927;32;20228;-63
2020/12/04 09:09:47;;;;;;;69.40;39.67;;;;;;;;;;4432369;32;20302;-62
2020/12/04 09:12:13;;;;;;;84.93;43.23;;;;;;;;;;4428561;32;20583;-62
2020/12/04 09:14:38;;;;;;;95.13;62.20;;;;;;;;;;4431006;32;20247;-62
2020/12/04 09:17:04;;;;;;;80.17;48.20;;;;;;;;;;4432000;32;20566;-62
2020/12/04 09:19:29;;;;;;;75.87;45.17;;;;;;;;;;4428544;32;20233;-62
2020/12/04 09:21:55;;;;;;;81.67;51.03;;;;;;;;;;4432556;32;20397;-61
2020/12/04 09:24:20;;;;;;;82.67;50.47;;;;;;;;;;4422928;32;20295;-62
2020/12/04 09:26:46;;;;;;;86.03;53.77;;;;;;;;;;4433760;32;20312;-63
2020/12/04 09:29:11;;;;;;;85.37;47.83;;;;;;;;;;4432815;32;20266;-63
2020/12/04 09:31:37;;;;;;;80.90;45.03;;;;;;;;;;4432600;32;20245;-62
2020/12/04 09:34:02;;;;;;;74.90;43.47;;;;;;;;;;4432577;32;20343;-63
2020/12/04 09:36:27;;;;;;;91.83;55.00;;;;;;;;;;4433963;32;20288;-62
2020/12/04 09:38:53;;;;;;;93.90;51.83;;;;;;;;;;4432488;32;20220;-63
2020/12/04 09:41:18;;;;;;;51.20;28.27;;;;;;;;;;4434070;32;20307;-62
2020/12/04 09:43:44;;;;;;;58.93;30.80;;;;;;;;;;4431156;32;20338;-62
2020/12/04 09:46:09;;;;;;;70.43;41.23;;;;;;;;;;4433755;32;20225;-62
2020/12/04 09:48:35;;;;;;;75.37;38.17;;;;;;;;;;4431765;32;20216;-63
2020/12/04 09:51:00;;;;;;;68.37;40.57;;;;;;;;;;4432162;32;20346;-62
2020/12/04 09:53:25;;;;;;;60.57;32.43;;;;;;;;;;4432510;32;20255;-61
2020/12/04 09:55:51;;;;;;;60.83;35.60;;;;;;;;;;4432879;32;20266;-62
2020/12/04 09:58:16;;;;;;;67.70;36.20;;;;;;;;;;4419388;32;20879;-61
2020/12/04 10:00:42;;;;;;;129.07;71.83;;;;;;;;;;4432950;32;20393;-61
2020/12/04 10:03:08;;;;;;;98.93;53.83;;;;;;;;;;4432795;32;20381;-62
2020/12/04 10:05:33;;;;;;;127.03;72.57;;;;;;;;;;4427050;32;20378;-60
2020/12/04 10:07:58;;;;;;;87.57;48.30;;;;;;;;;;4431573;32;20220;-61
2020/12/04 10:10:24;;;;;;;134.10;79.83;;;;;;;;;;4432595;32;20287;-61
2020/12/04 10:12:49;;;;;;;117.93;73.23;;;;;;;;;;4433455;32;20312;-61
2020/12/04 10:15:15;;;;;;;118.83;72.77;;;;;;;;;;4436057;32;20221;-60
2020/12/04 10:17:40;;;;;;;120.87;77.50;;;;;;;;;;4431640;32;20362;-62
2020/12/04 10:20:06;;;;;;;144.93;93.20;;;;;;;;;;4431586;32;20913;-59
2020/12/04 10:22:31;;;;;;;151.93;95.87;;;;;;;;;;4432145;32;20221;-59
2020/12/04 10:24:57;;;;;;;169.23;103.07;;;;;;;;;;4432649;32;20251;-59
2020/12/04 10:27:23;;;;;;;185.43;111.10;;;;;;;;;;4426988;32;20660;-59
2020/12/04 10:29:49;;;;;;;180.43;110.27;;;;;;;;;;4432627;32;20288;-59
2020/12/04 10:32:14;;;;;;;180.47;115.93;;;;;;;;;;4432673;32;20296;-59
2020/12/04 10:34:40;;;;;;;200.10;121.93;;;;;;;;;;4435718;32;20773;-59
2020/12/04 10:37:05;;;;;;;187.47;109.50;;;;;;;;;;4432982;32;20283;-59
2020/12/04 10:39:31;;;;;;;184.93;107.43;;;;;;;;;;4433017;32;20268;-59
2020/12/04 10:41:56;;;;;;;143.17;93.17;;;;;;;;;;4432223;32;20224;-59
2020/12/04 10:44:22;;;;;;;141.57;78.93;;;;;;;;;;4437460;32;20592;-59
2020/12/04 10:46:47;;;;;;;116.63;73.50;;;;;;;;;;4440093;32;20255;-60
2020/12/04 10:49:13;;;;;;;134.70;80.17;;;;;;;;;;4431570;32;20210;-60
2020/12/04 10:51:38;;;;;;;123.40;78.07;;;;;;;;;;4429483;32;20308;-60
2020/12/04 10:54:05;;;;;;;135.20;80.30;;;;;;;;;;4433150;32;20268;-60
2020/12/04 10:56:31;;;;;;;159.73;96.40;;;;;;;;;;4425956;32;20791;-60
2020/12/04 10:58:56;;;;;;;148.37;92.47;;;;;;;;;;4423823;32;20229;-60
2020/12/04 11:01:37;;;;;;;166.33;102.37;;;;;;;;;;4406809;32;20308;-60
2020/12/04 11:06:47;;;;;;;127.53;81.03;;;;;;;;;;4425052;32;20334;-60
2020/12/04 11:09:12;;;;;;;125.00;77.73;;;;;;;;;;4432137;32;20217;-61
2020/12/04 11:11:37;;;;;;;126.50;74.90;;;;;;;;;;4430363;32;20233;-61
2020/12/04 11:14:03;;;;;;;101.70;63.37;;;;;;;;;;4429823;32;20595;-61
2020/12/04 11:16:28;;;;;;;141.27;78.87;;;;;;;;;;4435788;32;20228;-61
2020/12/04 11:18:54;;;;;;;117.80;67.10;;;;;;;;;;4422423;32;20292;-61
2020/12/04 11:21:19;;;;;;;101.57;59.90;;;;;;;;;;4427881;32;20350;-60
2020/12/04 11:23:44;;;;;;;109.13;64.00;;;;;;;;;;4431889;32;20301;-60
2020/12/04 11:26:10;;;;;;;201.40;101.77;;;;;;;;;;4435143;32;20406;-61
2020/12/04 11:28:35;;;;;;;148.27;78.00;;;;;;;;;;4431053;32;20271;-60
2020/12/04 11:31:01;;;;;;;132.17;72.10;;;;;;;;;;4430630;32;20240;-61
2020/12/04 11:33:27;;;;;;;121.73;70.07;;;;;;;;;;4429447;32;20221;-59
2020/12/04 11:35:54;;;;;;;127.03;66.97;;;;;;;;;;4435424;32;20320;-61
2020/12/04 11:38:20;;;;;;;92.57;56.60;;;;;;;;;;4431781;32;20262;-60
2020/12/04 11:40:45;;;;;;;86.00;54.33;;;;;;;;;;4431569;32;20237;-60
2020/12/04 11:43:11;;;;;;;80.77;52.53;;;;;;;;;;4431552;32;20315;-60
2020/12/04 11:45:38;;;;;;;83.47;53.80;;;;;;;;;;4431647;32;20221;-61
2020/12/04 11:48:03;;;;;;;94.70;53.23;;;;;;;;;;4430310;32;20631;-60
2020/12/04 11:50:29;;;;;;;105.40;59.03;;;;;;;;;;4431562;32;20677;-60
2020/12/04 11:52:54;;;;;;;86.93;55.70;;;;;;;;;;4431360;32;20232;-60
2020/12/04 11:55:20;;;;;;;83.57;51.80;;;;;;;;;;4433407;32;20296;-60
2020/12/04 11:57:45;;;;;;;75.40;47.33;;;;;;;;;;4422777;32;20570;-60
2020/12/04 12:00:11;;;;;;;76.87;50.57;;;;;;;;;;4426162;32;20382;-60
2020/12/04 12:02:37;;;;;;;77.97;52.20;;;;;;;;;;4421979;32;20970;-61
2020/12/04 12:05:03;;;;;;;118.00;71.33;;;;;;;;;;4425677;32;20266;-61
2020/12/04 12:07:29;;;;;;;106.57;65.87;;;;;;;;;;4417718;32;20237;-61
2020/12/04 12:09:54;;;;;;;104.07;63.63;;;;;;;;;;4427815;32;20646;-60
2020/12/04 12:12:20;;;;;;;85.40;52.67;;;;;;;;;;4408099;32;20720;-59
2020/12/04 12:14:46;;;;;;;96.57;60.87;;;;;;;;;;4421774;32;20503;-60
2020/12/04 12:17:13;;;;;;;114.83;62.53;;;;;;;;;;4412560;32;20406;-62
2020/12/04 12:19:40;;;;;;;110.40;65.37;;;;;;;;;;4418999;32;20274;-61
2020/12/04 12:22:07;;;;;;;103.23;64.37;;;;;;;;;;4420829;32;20404;-59
2020/12/04 12:24:33;;;;;;;105.87;63.43;;;;;;;;;;4425640;32;20713;-59
2020/12/04 12:26:59;;;;;;;113.20;71.43;;;;;;;;;;4421377;32;20268;-59
2020/12/04 12:29:24;;;;;;;130.53;75.00;;;;;;;;;;4426709;32;20296;-60
2020/12/04 12:31:50;;;;;;;122.73;75.23;;;;;;;;;;4429018;32;20292;-60
2020/12/04 12:34:15;;;;;;;169.60;94.93;;;;;;;;;;4421254;32;20208;-60
2020/12/04 12:36:41;;;;;;;131.97;77.10;;;;;;;;;;4431015;32;20660;-60
2020/12/04 12:39:06;;;;;;;117.43;71.53;;;;;;;;;;4424526;32;20213;-61
2020/12/04 12:41:31;;;;;;;119.23;73.47;;;;;;;;;;4408780;32;20319;-61
2020/12/04 12:43:57;;;;;;;108.07;66.70;;;;;;;;;;4426858;32;20341;-61
2020/12/04 12:46:22;;;;;;;109.77;65.90;;;;;;;;;;4427528;32;20376;-61
2020/12/04 12:48:48;;;;;;;109.33;66.00;;;;;;;;;;4433691;32;20317;-61
2020/12/04 12:51:13;;;;;;;171.70;89.03;;;;;;;;;;4434032;32;20225;-59
2020/12/04 12:53:39;;;;;;;154.60;87.00;;;;;;;;;;4428460;32;20728;-60
2020/12/04 12:56:04;;;;;;;154.93;86.00;;;;;;;;;;4433531;32;20216;-60
2020/12/04 12:58:29;;;;;;;137.50;78.53;;;;;;;;;;4434797;32;20240;-60
2020/12/04 13:00:55;;;;;;;111.93;65.60;;;;;;;;;;4433445;32;20609;-60
2020/12/04 13:03:20;;;;;;;135.73;81.10;;;;;;;;;;4424199;32;20322;-60
2020/12/04 13:05:46;;;;;;;111.60;67.93;;;;;;;;;;4424610;32;20380;-61
2020/12/04 13:08:12;;;;;;;110.17;70.00;;;;;;;;;;4429174;32;20217;-59
2020/12/04 13:10:38;;;;;;;106.53;71.00;;;;;;;;;;4426723;32;20254;-61
2020/12/04 13:13:04;;;;;;;111.23;69.07;;;;;;;;;;4434208;32;20576;-60
2020/12/04 13:15:30;;;;;;;114.67;71.03;;;;;;;;;;4433367;32;20237;-60
2020/12/04 13:17:56;;;;;;;108.53;73.67;;;;;;;;;;4422928;32;20227;-60
2020/12/04 13:20:22;;;;;;;116.80;75.83;;;;;;;;;;4421529;32;20253;-60
2020/12/04 13:25:33;;;;;;;129.10;79.53;;;;;;;;;;4422942;32;20378;-60
2020/12/04 13:27:58;;;;;;;120.53;78.73;;;;;;;;;;4430766;32;20689;-61
2020/12/04 13:30:24;;;;;;;120.63;77.07;;;;;;;;;;4433159;32;20233;-60
2020/12/04 13:32:49;;;;;;;123.77;76.00;;;;;;;;;;4433700;32;20240;-64
2020/12/04 13:35:16;;;;;;;127.83;81.27;;;;;;;;;;4437073;32;20284;-65
2020/12/04 13:37:42;;;;;;;123.10;79.67;;;;;;;;;;4426408;32;20217;-63
2020/12/04 13:40:07;;;;;;;123.07;78.73;;;;;;;;;;4409378;32;20312;-63
2020/12/04 13:42:33;;;;;;;127.80;77.63;;;;;;;;;;4433569;32;20650;-63
2020/12/04 13:44:58;;;;;;;122.27;81.77;;;;;;;;;;4429792;32;20260;-65
2020/12/04 13:47:24;;;;;;;129.20;86.23;;;;;;;;;;4436545;32;20252;-64
2020/12/04 13:49:50;;;;;;;153.03;95.67;;;;;;;;;;4433457;32;20287;-63
2020/12/04 13:52:16;;;;;;;177.90;113.63;;;;;;;;;;4433303;32;20711;-65
2020/12/04 13:54:41;;;;;;;357.87;218.83;;;;;;;;;;4432110;32;20303;-65
2020/12/04 13:57:08;;;;;;;318.30;194.20;;;;;;;;;;4433053;32;20276;-65
2020/12/04 13:59:33;;;;;;;234.60;144.87;;;;;;;;;;4432819;32;20282;-65
2020/12/04 14:01:59;;;;;;;197.37;126.13;;;;;;;;;;4433684;32;20599;-66
2020/12/04 14:04:24;;;;;;;186.23;117.93;;;;;;;;;;4433882;32;20306;-64
2020/12/04 14:06:49;;;;;;;168.70;107.87;;;;;;;;;;4433921;32;20213;-63
2020/12/04 14:09:15;;;;;;;183.13;118.00;;;;;;;;;;4433933;32;20353;-64
2020/12/04 14:11:40;;;;;;;199.63;123.63;;;;;;;;;;4433962;32;20414;-63
2020/12/04 14:14:06;;;;;;;194.43;124.27;;;;;;;;;;4433693;32;20239;-64
2020/12/04 14:16:31;;;;;;;196.73;126.20;;;;;;;;;;4419689;32;20240;-64